createdAt,value
2016-08-24T00:00:02.618Z,74.7
2016-08-24T00:00:26.777Z,74.8
2016-08-24T00:00:50.905Z,74.8
2016-08-24T00:01:15.063Z,74.8
2016-08-24T00:01:39.220Z,74.9
2016-08-24T00:02:03.381Z,74.7
2016-08-24T00:02:27.514Z,74.6
2016-08-24T00:02:51.737Z,74.7
2016-08-24T00:03:16.073Z,74.7
2016-08-24T00:03:40.266Z,74.9
2016-08-24T00:04:04.416Z,75
2016-08-24T00:04:28.554Z,74.8
2016-08-24T00:04:52.672Z,74.5
2016-08-24T00:05:16.789Z,74.6
2016-08-24T00:05:40.920Z,74.7
2016-08-24T00:06:05.054Z,74.7
2016-08-24T00:06:29.173Z,74.7
2016-08-24T00:06:53.336Z,74.7
2016-08-24T00:07:17.444Z,74.8
2016-08-24T00:07:41.605Z,74.7
2016-08-24T00:08:05.761Z,74.5
2016-08-24T00:08:29.913Z,75.1
2016-08-24T00:08:54.051Z,74.7
2016-08-24T00:09:18.199Z,74.6
2016-08-24T00:09:42.327Z,74.5
2016-08-24T00:10:06.472Z,75.1
2016-08-24T00:10:30.617Z,75.1
2016-08-24T00:10:54.742Z,74.9
2016-08-24T00:11:18.951Z,75.4
2016-08-24T00:11:43.066Z,75.2
2016-08-24T00:12:07.211Z,75
2016-08-24T00:12:31.406Z,75.2
2016-08-24T00:12:55.545Z,75
2016-08-24T00:13:19.642Z,75
2016-08-24T00:13:43.761Z,75
2016-08-24T00:14:07.906Z,75.1
2016-08-24T00:14:32.056Z,75
2016-08-24T00:14:56.169Z,75.1
2016-08-24T00:15:20.395Z,75.3
2016-08-24T00:15:44.541Z,75.2
2016-08-24T00:16:08.696Z,75.4
2016-08-24T00:16:32.802Z,75
2016-08-24T00:16:56.945Z,75.2
2016-08-24T00:17:21.072Z,75.2
2016-08-24T00:17:45.185Z,75.2
2016-08-24T00:18:09.297Z,75.1
2016-08-24T00:18:33.396Z,75.2
2016-08-24T00:18:57.554Z,75.5
2016-08-24T00:19:21.699Z,75
2016-08-24T00:19:45.829Z,75
2016-08-24T00:20:09.955Z,75.5
2016-08-24T00:20:34.091Z,75.3
2016-08-24T00:20:58.220Z,75.2
2016-08-24T00:21:22.347Z,75.1
2016-08-24T00:21:46.445Z,74.9
2016-08-24T00:22:10.554Z,75.5
2016-08-24T00:22:34.685Z,74.9
2016-08-24T00:22:58.808Z,75
2016-08-24T00:23:22.930Z,75.1
2016-08-24T00:23:47.064Z,75.3
2016-08-24T00:24:11.181Z,75
2016-08-24T00:24:35.329Z,74.8
2016-08-24T00:24:59.464Z,74.8
2016-08-24T00:25:23.603Z,74.7
2016-08-24T00:25:47.697Z,75.3
2016-08-24T00:26:11.827Z,75.2
2016-08-24T00:26:35.967Z,75.2
2016-08-24T00:27:00.101Z,75.2
2016-08-24T00:27:24.214Z,75.3
2016-08-24T00:27:48.398Z,75.2
2016-08-24T00:28:12.531Z,75
2016-08-24T00:28:36.663Z,75.1
2016-08-24T00:29:00.785Z,75.1
2016-08-24T00:29:24.899Z,75.1
2016-08-24T00:29:49.067Z,75.3
2016-08-24T00:30:13.186Z,75.1
2016-08-24T00:30:37.290Z,75.4
2016-08-24T00:31:01.418Z,75.6
2016-08-24T00:31:25.559Z,75.6
2016-08-24T00:31:49.699Z,75.5
2016-08-24T00:32:13.839Z,75.6
2016-08-24T00:32:37.963Z,75.6
2016-08-24T00:33:02.102Z,75.6
2016-08-24T00:33:26.230Z,75.6
2016-08-24T00:33:50.353Z,75.6
2016-08-24T00:34:14.478Z,75.5
2016-08-24T00:34:38.607Z,75.5
2016-08-24T00:35:02.800Z,75.7
2016-08-24T00:35:26.908Z,75.3
2016-08-24T00:35:51.051Z,75.4
2016-08-24T00:36:15.168Z,75.7
2016-08-24T00:36:39.275Z,75.4
2016-08-24T00:37:03.382Z,75.3
2016-08-24T00:37:27.506Z,75.3
2016-08-24T00:37:51.644Z,75.4
2016-08-24T00:38:15.759Z,75.6
2016-08-24T00:38:39.890Z,75.4
2016-08-24T00:39:04.045Z,75.7
2016-08-24T00:39:28.180Z,75.5
2016-08-24T00:39:52.289Z,75.7
2016-08-24T00:40:16.401Z,75.4
2016-08-24T00:40:40.546Z,75.6
2016-08-24T00:41:04.666Z,75.6
2016-08-24T00:41:28.770Z,75.7
2016-08-24T00:41:52.908Z,75.8
2016-08-24T00:42:17.036Z,75.8
2016-08-24T00:42:41.175Z,75.8
2016-08-24T00:43:05.332Z,75.8
2016-08-24T00:43:29.495Z,75.6
2016-08-24T00:43:53.605Z,75.6
2016-08-24T00:44:17.735Z,75.8
2016-08-24T00:44:41.842Z,75.8
2016-08-24T00:45:05.960Z,75.6
2016-08-24T00:45:30.091Z,75.6
2016-08-24T00:45:54.230Z,75.8
2016-08-24T00:46:18.369Z,76
2016-08-24T00:46:42.494Z,75.8
2016-08-24T00:47:06.697Z,75.8
2016-08-24T00:47:30.828Z,75.7
2016-08-24T00:47:54.948Z,75.8
2016-08-24T00:48:19.104Z,75.8
2016-08-24T00:48:43.244Z,76.3
2016-08-24T00:49:07.379Z,75.8
2016-08-24T00:49:31.487Z,76.2
2016-08-24T00:49:55.609Z,75.8
2016-08-24T00:50:19.723Z,75.8
2016-08-24T00:50:43.841Z,75.8
2016-08-24T00:51:07.950Z,76.2
2016-08-24T00:51:32.069Z,75.8
2016-08-24T00:51:56.215Z,76.2
2016-08-24T00:52:20.350Z,76.2
2016-08-24T00:52:44.478Z,76.1
2016-08-24T00:53:08.612Z,76.3
2016-08-24T00:53:32.742Z,76
2016-08-24T00:53:56.879Z,76
2016-08-24T00:54:21.011Z,76.3
2016-08-24T00:54:45.178Z,75.8
2016-08-24T00:55:09.316Z,76.2
2016-08-24T00:55:33.441Z,76.1
2016-08-24T00:55:57.575Z,76
2016-08-24T00:56:21.735Z,76.2
2016-08-24T00:56:45.886Z,76
2016-08-24T00:57:09.993Z,75.9
2016-08-24T00:57:34.171Z,75.9
2016-08-24T00:57:58.305Z,75.9
2016-08-24T00:58:22.444Z,75.9
2016-08-24T00:58:46.556Z,76.1
2016-08-24T00:59:10.685Z,75.8
2016-08-24T00:59:34.847Z,75.9
2016-08-24T00:59:58.984Z,75.9
2016-08-24T01:00:23.107Z,75.9
2016-08-24T01:00:47.262Z,76.1
2016-08-24T01:01:11.397Z,75.8
2016-08-24T01:01:35.531Z,76.7
2016-08-24T01:01:59.665Z,76
2016-08-24T01:02:23.807Z,75.9
2016-08-24T01:02:47.952Z,75.9
2016-08-24T01:03:12.061Z,75.9
2016-08-24T01:03:36.188Z,76.3
2016-08-24T01:04:00.341Z,75.8
2016-08-24T01:04:24.482Z,75.8
2016-08-24T01:04:48.599Z,76.7
2016-08-24T01:05:12.741Z,75.9
2016-08-24T01:05:36.878Z,76.3
2016-08-24T01:06:01.014Z,76.6
2016-08-24T01:06:25.161Z,76.5
2016-08-24T01:06:49.278Z,76.5
2016-08-24T01:07:13.400Z,76.6
2016-08-24T01:07:37.531Z,76.6
2016-08-24T01:08:01.643Z,76.3
2016-08-24T01:08:25.785Z,76.4
2016-08-24T01:08:49.921Z,76.5
2016-08-24T01:09:14.054Z,76.2
2016-08-24T01:09:38.292Z,76.4
2016-08-24T01:10:02.422Z,76.2
2016-08-24T01:10:26.621Z,76.4
2016-08-24T01:10:50.749Z,76.2
2016-08-24T01:11:14.865Z,76.9
2016-08-24T01:11:38.995Z,76.9
2016-08-24T01:12:03.154Z,77
2016-08-24T01:12:27.275Z,77
2016-08-24T01:12:51.412Z,77
2016-08-24T01:13:15.548Z,76.9
2016-08-24T01:13:39.681Z,76.9
2016-08-24T01:14:03.818Z,76.5
2016-08-24T01:14:27.972Z,76.5
2016-08-24T01:14:52.101Z,76.8
2016-08-24T01:15:16.224Z,76.8
2016-08-24T01:15:40.350Z,76.7
2016-08-24T01:16:04.477Z,76.6
2016-08-24T01:16:28.616Z,76.7
2016-08-24T01:16:52.755Z,76.7
2016-08-24T01:17:16.887Z,76.9
2016-08-24T01:17:41.002Z,76.7
2016-08-24T01:18:05.144Z,76.7
2016-08-24T01:18:29.271Z,76.5
2016-08-24T01:18:53.393Z,77.1
2016-08-24T01:19:17.538Z,76.6
2016-08-24T01:19:41.649Z,76.5
2016-08-24T01:20:05.767Z,76.5
2016-08-24T01:20:29.894Z,76.7
2016-08-24T01:20:54.035Z,77
2016-08-24T01:21:18.170Z,76.8
2016-08-24T01:21:42.298Z,77
2016-08-24T01:22:06.420Z,76.5
2016-08-24T01:22:30.535Z,76.2
2016-08-24T01:22:54.682Z,76.2
2016-08-24T01:23:18.798Z,76.3
2016-08-24T01:23:42.920Z,76.2
2016-08-24T01:24:07.037Z,76.3
2016-08-24T01:24:31.171Z,76.2
2016-08-24T01:24:55.293Z,76.4
2016-08-24T01:25:19.404Z,76.3
2016-08-24T01:25:43.533Z,76.2
2016-08-24T01:26:07.648Z,76.3
2016-08-24T01:26:31.804Z,76.3
2016-08-24T01:26:55.925Z,76.3
2016-08-24T01:27:20.038Z,76.3
2016-08-24T01:27:44.189Z,76.2
2016-08-24T01:28:08.322Z,76.2
2016-08-24T01:28:32.454Z,76.3
2016-08-24T01:28:56.585Z,75.9
2016-08-24T01:29:20.712Z,76.3
2016-08-24T01:29:44.844Z,76.2
2016-08-24T01:30:08.963Z,76.1
2016-08-24T01:30:33.097Z,76.2
2016-08-24T01:30:57.242Z,76.5
2016-08-24T01:31:21.386Z,76.1
2016-08-24T01:31:45.472Z,76.9
2016-08-24T01:32:09.597Z,76.9
2016-08-24T01:32:33.729Z,77
2016-08-24T01:32:57.894Z,76.9
2016-08-24T01:33:22.007Z,76.9
2016-08-24T01:33:46.133Z,76.9
2016-08-24T01:34:10.273Z,77
2016-08-24T01:34:34.412Z,77
2016-08-24T01:34:58.539Z,77
2016-08-24T01:35:22.671Z,76.8
2016-08-24T01:35:46.809Z,77
2016-08-24T01:36:10.925Z,76.9
2016-08-24T01:36:35.076Z,76.8
2016-08-24T01:36:59.187Z,76.5
2016-08-24T01:37:23.322Z,76.6
2016-08-24T01:37:47.452Z,76.6
2016-08-24T01:38:11.595Z,76.6
2016-08-24T01:38:35.734Z,76.5
2016-08-24T01:38:59.896Z,76.2
2016-08-24T01:39:24.021Z,76.3
2016-08-24T01:39:48.152Z,76.9
2016-08-24T01:40:12.276Z,76.8
2016-08-24T01:40:36.391Z,76.8
2016-08-24T01:41:00.486Z,76.8
2016-08-24T01:41:24.644Z,77
2016-08-24T01:41:48.808Z,76.9
2016-08-24T01:42:12.948Z,76.9
2016-08-24T01:42:37.061Z,77
2016-08-24T01:43:01.196Z,76.9
2016-08-24T01:43:25.308Z,76.9
2016-08-24T01:43:49.461Z,76.4
2016-08-24T01:44:13.618Z,76.4
2016-08-24T01:44:37.781Z,76.4
2016-08-24T01:45:01.895Z,76.4
2016-08-24T01:45:26.014Z,76.5
2016-08-24T01:45:50.131Z,76.5
2016-08-24T01:46:14.251Z,76.7
2016-08-24T01:46:38.392Z,76.8
2016-08-24T01:47:02.542Z,76.3
2016-08-24T01:47:26.662Z,76.4
2016-08-24T01:47:50.784Z,76.5
2016-08-24T01:48:14.965Z,76.7
2016-08-24T01:48:39.094Z,76.8
2016-08-24T01:49:03.237Z,76.5
2016-08-24T01:49:27.355Z,76.6
2016-08-24T01:49:51.495Z,76.9
2016-08-24T01:50:15.594Z,76.5
2016-08-24T01:50:39.729Z,76.6
2016-08-24T01:51:03.886Z,76.6
2016-08-24T01:51:28.021Z,76.3
2016-08-24T01:51:52.125Z,76.6
2016-08-24T01:52:16.278Z,76.3
2016-08-24T01:52:40.422Z,76.6
2016-08-24T01:53:04.557Z,76.5
2016-08-24T01:53:28.668Z,76.7
2016-08-24T01:53:52.809Z,76.5
2016-08-24T01:54:16.945Z,76.3
2016-08-24T01:54:41.089Z,76.6
2016-08-24T01:55:05.200Z,76.8
2016-08-24T01:55:29.336Z,76.4
2016-08-24T01:55:53.473Z,76.4
2016-08-24T01:56:17.610Z,76.4
2016-08-24T01:56:41.739Z,77
2016-08-24T01:57:05.846Z,76.9
2016-08-24T01:57:29.995Z,76.7
2016-08-24T01:57:54.132Z,76.3
2016-08-24T01:58:18.245Z,76.5
2016-08-24T01:58:42.378Z,77
2016-08-24T01:59:06.529Z,76.8
2016-08-24T01:59:30.661Z,76.9
2016-08-24T01:59:54.783Z,77
2016-08-24T02:00:18.915Z,76.7
2016-08-24T02:00:43.072Z,76.9
2016-08-24T02:01:07.233Z,76.7
2016-08-24T02:01:31.343Z,76.8
2016-08-24T02:01:55.471Z,76.8
2016-08-24T02:02:19.613Z,76.8
2016-08-24T02:02:43.732Z,76.6
2016-08-24T02:03:07.866Z,77.2
2016-08-24T02:03:32.001Z,76.8
2016-08-24T02:03:56.136Z,77.3
2016-08-24T02:04:20.253Z,77.1
2016-08-24T02:04:44.358Z,77.3
2016-08-24T02:05:08.502Z,76.9
2016-08-24T02:05:32.643Z,77
2016-08-24T02:05:56.730Z,77
2016-08-24T02:06:20.872Z,76.6
2016-08-24T02:06:45.015Z,77.1
2016-08-24T02:07:09.171Z,76.6
2016-08-24T02:07:33.299Z,77.1
2016-08-24T02:07:57.415Z,76.8
2016-08-24T02:08:21.559Z,76.8
2016-08-24T02:08:45.662Z,76.8
2016-08-24T02:09:09.773Z,76.6
2016-08-24T02:09:33.899Z,76.6
2016-08-24T02:09:58.149Z,76.7
2016-08-24T02:10:22.281Z,77
2016-08-24T02:10:46.417Z,77.3
2016-08-24T02:11:10.541Z,76.7
2016-08-24T02:11:34.681Z,77.4
2016-08-24T02:11:58.808Z,76.9
2016-08-24T02:12:22.934Z,76.8
2016-08-24T02:12:47.056Z,76.8
2016-08-24T02:13:11.188Z,76.9
2016-08-24T02:13:35.303Z,76.8
2016-08-24T02:13:59.462Z,76.8
2016-08-24T02:14:23.592Z,76.8
2016-08-24T02:14:47.733Z,76.8
2016-08-24T02:15:11.846Z,77
2016-08-24T02:15:35.955Z,76.6
2016-08-24T02:16:00.077Z,76.8
2016-08-24T02:16:24.209Z,77
2016-08-24T02:16:48.309Z,76.9
2016-08-24T02:17:12.441Z,77.1
2016-08-24T02:17:36.594Z,77
2016-08-24T02:18:00.723Z,77.1
2016-08-24T02:18:24.859Z,77
2016-08-24T02:18:49.008Z,76.7
2016-08-24T02:19:13.156Z,76.8
2016-08-24T02:19:37.268Z,76.9
2016-08-24T02:20:01.450Z,76.9
2016-08-24T02:20:25.582Z,76.7
2016-08-24T02:20:49.712Z,76.8
2016-08-24T02:21:13.820Z,77.1
2016-08-24T02:21:37.946Z,76.8
2016-08-24T02:22:02.075Z,76.9
2016-08-24T02:22:26.199Z,76.9
2016-08-24T02:22:50.320Z,76.7
2016-08-24T02:23:14.448Z,76.8
2016-08-24T02:23:38.598Z,76.8
2016-08-24T02:24:02.750Z,77
2016-08-24T02:24:26.881Z,76.7
2016-08-24T02:24:50.994Z,77.1
2016-08-24T02:25:15.117Z,76.9
2016-08-24T02:25:39.257Z,76.9
2016-08-24T02:26:03.360Z,76.8
2016-08-24T02:26:27.492Z,76.9
2016-08-24T02:26:51.614Z,76.8
2016-08-24T02:27:15.748Z,76.8
2016-08-24T02:27:39.858Z,76.9
2016-08-24T02:28:03.964Z,76.7
2016-08-24T02:28:28.135Z,76.8
2016-08-24T02:28:52.274Z,77.2
2016-08-24T02:29:16.413Z,77.4
2016-08-24T02:29:40.556Z,77.2
2016-08-24T02:30:04.685Z,77.2
2016-08-24T02:30:28.875Z,77.5
2016-08-24T02:30:53.027Z,77.2
2016-08-24T02:31:17.165Z,77.3
2016-08-24T02:31:41.298Z,77.4
2016-08-24T02:32:05.422Z,77.2
2016-08-24T02:32:29.542Z,77.4
2016-08-24T02:32:53.650Z,77.3
2016-08-24T02:33:17.788Z,77.1
2016-08-24T02:33:41.901Z,77.2
2016-08-24T02:34:06.014Z,77.4
2016-08-24T02:34:30.138Z,77.4
2016-08-24T02:34:54.294Z,77.2
2016-08-24T02:35:18.399Z,77.2
2016-08-24T02:35:42.546Z,77.5
2016-08-24T02:36:06.694Z,77.5
2016-08-24T02:36:30.840Z,77.5
2016-08-24T02:36:54.957Z,77.1
2016-08-24T02:37:19.084Z,77.2
2016-08-24T02:37:43.219Z,77.1
2016-08-24T02:38:07.335Z,77.7
2016-08-24T02:38:31.452Z,77.4
2016-08-24T02:38:55.576Z,77.6
2016-08-24T02:39:19.701Z,77.7
2016-08-24T02:39:43.823Z,77.7
2016-08-24T02:40:07.972Z,77.6
2016-08-24T02:40:32.101Z,77.3
2016-08-24T02:40:56.229Z,77.4
2016-08-24T02:41:20.356Z,77.4
2016-08-24T02:41:44.473Z,77.6
2016-08-24T02:42:08.608Z,77.2
2016-08-24T02:42:32.782Z,77.3
2016-08-24T02:42:56.945Z,77.3
2016-08-24T02:43:21.073Z,77.5
2016-08-24T02:43:45.262Z,77.3
2016-08-24T02:44:09.400Z,77.5
2016-08-24T02:44:33.540Z,77.3
2016-08-24T02:44:57.661Z,77.1
2016-08-24T02:45:21.792Z,77.2
2016-08-24T02:45:45.925Z,77.3
2016-08-24T02:46:10.056Z,77.1
2016-08-24T02:46:34.215Z,77.1
2016-08-24T02:46:58.341Z,77.5
2016-08-24T02:47:22.492Z,77.1
2016-08-24T02:47:46.613Z,77.1
2016-08-24T02:48:10.727Z,77.4
2016-08-24T02:48:34.872Z,77.7
2016-08-24T02:48:59.001Z,77.7
2016-08-24T02:49:23.151Z,77.7
2016-08-24T02:49:47.266Z,77.7
2016-08-24T02:50:11.391Z,77.5
2016-08-24T02:50:35.528Z,77.7
2016-08-24T02:50:59.632Z,77.8
2016-08-24T02:51:23.773Z,77.7
2016-08-24T02:51:47.895Z,77.6
2016-08-24T02:52:12.045Z,77.5
2016-08-24T02:52:36.187Z,77.6
2016-08-24T02:53:00.318Z,77.6
2016-08-24T02:53:24.442Z,77.6
2016-08-24T02:53:48.573Z,77.8
2016-08-24T02:54:12.675Z,77.7
2016-08-24T02:54:36.816Z,77.7
2016-08-24T02:55:00.952Z,77.6
2016-08-24T02:55:25.078Z,77.3
2016-08-24T02:55:49.232Z,77.4
2016-08-24T02:56:13.361Z,77.4
2016-08-24T02:56:37.494Z,77.4
2016-08-24T02:57:01.622Z,77.9
2016-08-24T02:57:25.779Z,77.4
2016-08-24T02:57:49.907Z,77.3
2016-08-24T02:58:14.044Z,77.4
2016-08-24T02:58:38.168Z,77.6
2016-08-24T02:59:02.284Z,77.6
2016-08-24T02:59:26.453Z,77.7
2016-08-24T02:59:50.579Z,77.6
2016-08-24T03:00:14.731Z,77.7
2016-08-24T03:00:38.866Z,77.5
2016-08-24T03:01:03.023Z,77.5
2016-08-24T03:01:27.163Z,77.4
2016-08-24T03:01:51.291Z,77.4
2016-08-24T03:02:15.436Z,77.4
2016-08-24T03:02:39.598Z,77.7
2016-08-24T03:03:03.733Z,77.9
2016-08-24T03:03:27.851Z,77.7
2016-08-24T03:03:52.006Z,77.7
2016-08-24T03:04:16.139Z,77.5
2016-08-24T03:04:40.249Z,77.6
2016-08-24T03:05:04.362Z,77.7
2016-08-24T03:05:28.506Z,77.6
2016-08-24T03:05:52.617Z,77.7
2016-08-24T03:06:16.729Z,77.8
2016-08-24T03:06:40.854Z,77.6
2016-08-24T03:07:04.990Z,77.5
2016-08-24T03:07:29.100Z,77.6
2016-08-24T03:07:53.241Z,77.6
2016-08-24T03:08:17.614Z,77.5
2016-08-24T03:08:41.733Z,77.4
2016-08-24T03:09:05.847Z,77.4
2016-08-24T03:09:29.953Z,77.5
2016-08-24T03:09:54.091Z,77.3
2016-08-24T03:10:18.227Z,77.4
2016-08-24T03:10:42.344Z,77.4
2016-08-24T03:11:06.483Z,77.5
2016-08-24T03:11:30.632Z,77.9
2016-08-24T03:11:54.735Z,77.7
2016-08-24T03:12:18.868Z,77.6
2016-08-24T03:12:43.006Z,77.8
2016-08-24T03:13:07.148Z,78.3
2016-08-24T03:13:31.272Z,78.2
2016-08-24T03:13:55.391Z,78
2016-08-24T03:14:19.527Z,77.7
2016-08-24T03:14:43.669Z,77.8
2016-08-24T03:15:07.795Z,78.6
2016-08-24T03:15:31.922Z,77.9
2016-08-24T03:15:56.041Z,78.5
2016-08-24T03:16:20.180Z,78.4
2016-08-24T03:16:44.294Z,78.7
2016-08-24T03:17:08.424Z,78.6
2016-08-24T03:17:32.568Z,78.4
2016-08-24T03:17:56.908Z,78
2016-08-24T03:18:21.103Z,78.4
2016-08-24T03:18:45.268Z,78.6
2016-08-24T03:19:09.379Z,78.3
2016-08-24T03:19:33.499Z,78.6
2016-08-24T03:19:57.608Z,78.6
2016-08-24T03:20:21.755Z,78.5
2016-08-24T03:20:45.891Z,77.9
2016-08-24T03:21:10.004Z,77.9
2016-08-24T03:21:34.129Z,78.3
2016-08-24T03:21:58.272Z,77.8
2016-08-24T03:22:22.405Z,77.6
2016-08-24T03:22:46.538Z,78
2016-08-24T03:23:10.726Z,78
2016-08-24T03:23:34.866Z,77.9
2016-08-24T03:23:58.960Z,77.8
2016-08-24T03:24:23.084Z,78
2016-08-24T03:24:47.205Z,78.1
2016-08-24T03:25:11.331Z,78.1
2016-08-24T03:25:35.446Z,78.1
2016-08-24T03:25:59.587Z,78
2016-08-24T03:26:23.741Z,78.1
2016-08-24T03:26:47.867Z,78.2
2016-08-24T03:27:11.990Z,78
2016-08-24T03:27:36.112Z,78.1
2016-08-24T03:28:00.245Z,78.2
2016-08-24T03:28:24.354Z,78
2016-08-24T03:28:48.470Z,77.5
2016-08-24T03:29:12.647Z,78.5
2016-08-24T03:29:36.775Z,78.2
2016-08-24T03:30:00.881Z,78.4
2016-08-24T03:30:25.043Z,78.5
2016-08-24T03:30:49.170Z,78.6
2016-08-24T03:31:13.304Z,78.6
2016-08-24T03:31:37.420Z,78.6
2016-08-24T03:32:01.542Z,78.6
2016-08-24T03:32:25.673Z,78.6
2016-08-24T03:32:49.811Z,78.5
2016-08-24T03:33:13.945Z,77.9
2016-08-24T03:33:38.081Z,77.7
2016-08-24T03:34:02.203Z,78.4
2016-08-24T03:34:26.342Z,78.6
2016-08-24T03:34:50.509Z,77.8
2016-08-24T03:35:14.637Z,78.6
2016-08-24T03:35:38.772Z,78.7
2016-08-24T03:36:02.918Z,77.9
2016-08-24T03:36:27.059Z,77.9
2016-08-24T03:36:51.188Z,77.9
2016-08-24T03:37:15.317Z,78
2016-08-24T03:37:39.438Z,77.9
2016-08-24T03:38:03.586Z,77.8
2016-08-24T03:38:27.740Z,77.8
2016-08-24T03:38:52.648Z,78
2016-08-24T03:39:16.788Z,78
2016-08-24T03:39:40.933Z,78.2
2016-08-24T03:40:05.080Z,78.2
2016-08-24T03:40:29.199Z,77.8
2016-08-24T03:40:53.338Z,78.6
2016-08-24T03:41:17.471Z,78.6
2016-08-24T03:41:41.597Z,78
2016-08-24T03:42:05.730Z,78.3
2016-08-24T03:42:29.871Z,78.4
2016-08-24T03:42:54.011Z,78.6
2016-08-24T03:43:18.134Z,78.5
2016-08-24T03:43:42.263Z,77.8
2016-08-24T03:44:06.378Z,78
2016-08-24T03:44:30.526Z,77.8
2016-08-24T03:44:54.683Z,78.1
2016-08-24T03:45:18.814Z,78.3
2016-08-24T03:45:42.927Z,77.8
2016-08-24T03:46:07.065Z,78
2016-08-24T03:46:31.200Z,77.9
2016-08-24T03:46:55.311Z,78
2016-08-24T03:47:19.455Z,78
2016-08-24T03:47:43.572Z,78
2016-08-24T03:48:07.715Z,78.1
2016-08-24T03:48:31.880Z,78.1
2016-08-24T03:48:56.017Z,78
2016-08-24T03:49:20.155Z,78.1
2016-08-24T03:49:44.300Z,78.2
2016-08-24T03:50:08.433Z,78.1
2016-08-24T03:50:32.514Z,77.9
2016-08-24T03:50:56.653Z,77.8
2016-08-24T03:51:20.773Z,78.6
2016-08-24T03:51:44.897Z,78.1
2016-08-24T03:52:08.996Z,78.1
2016-08-24T03:52:33.149Z,78.8
2016-08-24T03:52:57.299Z,78.7
2016-08-24T03:53:21.431Z,78.5
2016-08-24T03:53:45.524Z,78.7
2016-08-24T03:54:09.675Z,79.1
2016-08-24T03:54:33.786Z,79.3
2016-08-24T03:54:57.931Z,79.3
2016-08-24T03:55:22.111Z,78.9
2016-08-24T03:55:46.257Z,79.1
2016-08-24T03:56:10.384Z,79.2
2016-08-24T03:56:34.518Z,79.1
2016-08-24T03:56:58.647Z,79.1
2016-08-24T03:57:22.785Z,79.1
2016-08-24T03:57:46.927Z,79.1
2016-08-24T03:58:11.031Z,79.2
2016-08-24T03:58:35.203Z,79.2
2016-08-24T03:58:59.342Z,79.3
2016-08-24T03:59:23.458Z,78.9
2016-08-24T03:59:47.595Z,78.8
2016-08-24T04:00:11.737Z,78.6
2016-08-24T04:00:35.850Z,78.8
2016-08-24T04:00:59.970Z,78.7
2016-08-24T04:01:24.104Z,78.6
2016-08-24T04:01:48.241Z,78.2
2016-08-24T04:02:12.359Z,78.2
2016-08-24T04:02:36.483Z,78.9
2016-08-24T04:03:00.607Z,78.4
2016-08-24T04:03:24.755Z,78.4
2016-08-24T04:03:48.893Z,78.4
2016-08-24T04:04:13.037Z,78.4
2016-08-24T04:04:37.200Z,78.4
2016-08-24T04:05:01.346Z,78.1
2016-08-24T04:05:25.461Z,78.9
2016-08-24T04:05:49.610Z,78.4
2016-08-24T04:06:13.745Z,78
2016-08-24T04:06:37.894Z,78.2
2016-08-24T04:07:02.007Z,78.4
2016-08-24T04:07:26.128Z,78.4
2016-08-24T04:07:50.248Z,78.1
2016-08-24T04:08:14.407Z,78.3
2016-08-24T04:08:38.522Z,78.5
2016-08-24T04:09:02.656Z,78.4
2016-08-24T04:09:26.772Z,78.6
2016-08-24T04:09:50.965Z,78.6
2016-08-24T04:10:15.113Z,78.5
2016-08-24T04:10:39.246Z,77.5
2016-08-24T04:11:03.381Z,78.4
2016-08-24T04:11:27.543Z,78.6
2016-08-24T04:11:51.683Z,78.5
2016-08-24T04:12:15.853Z,78.7
2016-08-24T04:12:39.975Z,78.6
2016-08-24T04:13:04.090Z,78.6
2016-08-24T04:13:28.269Z,78.6
2016-08-24T04:13:52.414Z,77.9
2016-08-24T04:14:16.557Z,78.7
2016-08-24T04:14:40.648Z,77.8
2016-08-24T04:15:04.779Z,78.5
2016-08-24T04:15:28.912Z,78.6
2016-08-24T04:15:53.025Z,78.4
2016-08-24T04:16:17.175Z,78.7
2016-08-24T04:16:41.313Z,78.6
2016-08-24T04:17:05.477Z,78
2016-08-24T04:17:29.596Z,78.1
2016-08-24T04:17:53.701Z,78.6
2016-08-24T04:18:17.873Z,78.5
2016-08-24T04:18:42.006Z,78.5
2016-08-24T04:19:06.132Z,77.8
2016-08-24T04:19:30.259Z,78
2016-08-24T04:19:54.441Z,78
2016-08-24T04:20:18.602Z,78.1
2016-08-24T04:20:42.725Z,77.9
2016-08-24T04:21:06.849Z,78.1
2016-08-24T04:21:30.986Z,78.1
2016-08-24T04:21:55.104Z,78.1
2016-08-24T04:22:19.216Z,78.1
2016-08-24T04:22:43.348Z,78.3
2016-08-24T04:23:07.482Z,78.2
2016-08-24T04:23:31.619Z,78.6
2016-08-24T04:23:55.726Z,78.6
2016-08-24T04:24:19.853Z,78
2016-08-24T04:24:43.998Z,78.6
2016-08-24T04:25:08.112Z,78.4
2016-08-24T04:25:32.226Z,78.6
2016-08-24T04:25:56.345Z,78.6
2016-08-24T04:26:20.511Z,78.6
2016-08-24T04:26:44.636Z,78.4
2016-08-24T04:27:08.758Z,78.6
2016-08-24T04:27:32.886Z,78.4
2016-08-24T04:27:57.027Z,78.7
2016-08-24T04:28:21.167Z,78
2016-08-24T04:28:45.307Z,78
2016-08-24T04:29:09.467Z,78
2016-08-24T04:29:33.597Z,78.4
2016-08-24T04:29:57.697Z,78.1
2016-08-24T04:30:21.827Z,78.4
2016-08-24T04:30:45.964Z,78.4
2016-08-24T04:31:10.092Z,78.6
2016-08-24T04:31:34.207Z,78.1
2016-08-24T04:31:58.357Z,78.6
2016-08-24T04:32:22.500Z,78.5
2016-08-24T04:32:46.640Z,78.3
2016-08-24T04:33:10.774Z,78.6
2016-08-24T04:33:34.905Z,78.5
2016-08-24T04:33:59.041Z,78.4
2016-08-24T04:34:23.184Z,78.1
2016-08-24T04:34:47.338Z,78.4
2016-08-24T04:35:11.484Z,78.3
2016-08-24T04:35:35.634Z,78.2
2016-08-24T04:35:59.850Z,78.6
2016-08-24T04:36:23.970Z,78.2
2016-08-24T04:36:48.096Z,79
2016-08-24T04:37:12.249Z,78.1
2016-08-24T04:37:36.385Z,78.6
2016-08-24T04:38:00.521Z,78.3
2016-08-24T04:38:24.636Z,78.8
2016-08-24T04:38:48.761Z,78.4
2016-08-24T04:39:12.903Z,78.3
2016-08-24T04:39:37.039Z,78.8
2016-08-24T04:40:01.191Z,79.3
2016-08-24T04:40:25.332Z,78.8
2016-08-24T04:40:49.469Z,78.8
2016-08-24T04:41:13.611Z,78.8
2016-08-24T04:41:37.794Z,78.6
2016-08-24T04:42:01.904Z,78.6
2016-08-24T04:42:26.022Z,78.9
2016-08-24T04:42:50.190Z,79
2016-08-24T04:43:14.340Z,78.7
2016-08-24T04:43:38.474Z,78.4
2016-08-24T04:44:02.628Z,78.7
2016-08-24T04:44:26.778Z,78.5
2016-08-24T04:44:50.936Z,78.4
2016-08-24T04:45:15.107Z,78.6
2016-08-24T04:45:39.239Z,78.5
2016-08-24T04:46:03.365Z,78.6
2016-08-24T04:46:27.506Z,78.4
2016-08-24T04:46:51.629Z,78.3
2016-08-24T04:47:15.757Z,78.4
2016-08-24T04:47:39.902Z,78.2
2016-08-24T04:48:04.044Z,78.1
2016-08-24T04:48:28.169Z,78.5
2016-08-24T04:48:52.303Z,78.1
2016-08-24T04:49:16.426Z,77.8
2016-08-24T04:49:40.582Z,77.9
2016-08-24T04:50:04.717Z,78.6
2016-08-24T04:50:28.856Z,78.7
2016-08-24T04:50:53.053Z,78.1
2016-08-24T04:51:17.201Z,77.5
2016-08-24T04:51:41.331Z,77.5
2016-08-24T04:52:05.487Z,77.5
2016-08-24T04:52:29.617Z,78.6
2016-08-24T04:52:53.776Z,77.9
2016-08-24T04:53:17.884Z,77.8
2016-08-24T04:53:42.008Z,77.9
2016-08-24T04:54:06.153Z,78.2
2016-08-24T04:54:30.303Z,77.9
2016-08-24T04:54:54.444Z,78
2016-08-24T04:55:18.578Z,78.1
2016-08-24T04:55:42.712Z,78.1
2016-08-24T04:56:06.855Z,78.1
2016-08-24T04:56:30.987Z,78.1
2016-08-24T04:56:55.103Z,78
2016-08-24T04:57:19.223Z,78.2
2016-08-24T04:57:43.338Z,78.2
2016-08-24T04:58:07.480Z,78.2
2016-08-24T04:58:31.615Z,78.2
2016-08-24T04:58:55.744Z,78.1
2016-08-24T04:59:19.893Z,78.3
2016-08-24T04:59:44.043Z,77.7
2016-08-24T05:00:08.177Z,78
2016-08-24T05:00:32.289Z,77.7
2016-08-24T05:00:56.413Z,78.2
2016-08-24T05:01:20.562Z,78.2
2016-08-24T05:01:44.696Z,77.7
2016-08-24T05:02:08.811Z,78.2
2016-08-24T05:02:32.949Z,78.2
2016-08-24T05:02:57.092Z,78.3
2016-08-24T05:03:21.240Z,78.1
2016-08-24T05:03:45.368Z,78.1
2016-08-24T05:04:09.515Z,77.7
2016-08-24T05:04:33.648Z,78.1
2016-08-24T05:04:57.777Z,77.8
2016-08-24T05:05:21.887Z,78.1
2016-08-24T05:05:46.063Z,77.8
2016-08-24T05:06:10.214Z,77.7
2016-08-24T05:06:34.342Z,78.2
2016-08-24T05:06:58.464Z,78.3
2016-08-24T05:07:22.602Z,78
2016-08-24T05:07:46.757Z,78
2016-08-24T05:08:10.863Z,78.3
2016-08-24T05:08:34.988Z,77.9
2016-08-24T05:08:59.119Z,77.9
2016-08-24T05:09:23.295Z,78.1
2016-08-24T05:09:47.435Z,78.1
2016-08-24T05:10:11.579Z,78.1
2016-08-24T05:10:35.747Z,78.1
2016-08-24T05:10:59.904Z,78.1
2016-08-24T05:11:24.029Z,78
2016-08-24T05:11:48.181Z,78.1
2016-08-24T05:12:12.302Z,78.2
2016-08-24T05:12:36.435Z,77.9
2016-08-24T05:13:00.589Z,77.8
2016-08-24T05:13:24.737Z,77.7
2016-08-24T05:13:48.913Z,77.6
2016-08-24T05:14:13.018Z,77.7
2016-08-24T05:14:37.137Z,77.8
2016-08-24T05:15:01.289Z,77.6
2016-08-24T05:15:25.439Z,77.6
2016-08-24T05:15:49.560Z,77.5
2016-08-24T05:16:13.683Z,77.8
2016-08-24T05:16:37.802Z,77.6
2016-08-24T05:17:01.923Z,77.8
2016-08-24T05:17:26.055Z,77.7
2016-08-24T05:17:50.220Z,78.3
2016-08-24T05:18:14.350Z,77.8
2016-08-24T05:18:38.488Z,77.8
2016-08-24T05:19:02.604Z,78.3
2016-08-24T05:19:26.735Z,78.2
2016-08-24T05:19:50.870Z,78.3
2016-08-24T05:20:15.004Z,78.2
2016-08-24T05:20:39.138Z,78.2
2016-08-24T05:21:03.270Z,78
2016-08-24T05:21:27.412Z,78.1
2016-08-24T05:21:51.549Z,77.8
2016-08-24T05:22:15.675Z,77.7
2016-08-24T05:22:39.846Z,78
2016-08-24T05:23:03.975Z,78.3